sensor_id;sensor_type;location;lat;lon;timestamp;pressure;altitude;pressure_sealevel;temperature
74485;BMP280;62942;52.462;10.846;2023-04-16T00:00:17;100860;;;
74485;BMP280;62942;52.462;10.846;2023-04-16T00:01:17;100860;;;
74485;BMP280;62942;52.462;10.846;2023-04-16T00:02:27;100870;;;
74485;BMP280;62942;52.462;10.846;2023-04-16T00:03:27;100860;;;
74485;BMP280;62942;52.462;10.846;2023-04-16T00:04:37;100870;;;
74485;BMP280;62942;52.462;10.846;2023-04-16T00:05:47;100870;;;
74485;BMP280;62942;52.462;10.846;2023-04-16T00:06:47;100870;;;
74485;BMP280;62942;52.462;10.846;2023-04-16T00:07:57;100870;;;
74485;BMP280;62942;52.462;10.846;2023-04-16T00:08:57;100870;;;
74485;BMP280;62942;52.462;10.846;2023-04-16T00:10:07;100870;;;
74485;BMP280;62942;52.462;10.846;2023-04-16T00:11:07;100850;;;
74485;BMP280;62942;52.462;10.846;2023-04-16T00:12:17;100850;;;
74485;BMP280;62942;52.462;10.846;2023-04-16T00:13:17;100870;;;
74485;BMP280;62942;52.462;10.846;2023-04-16T00:14:17;100870;;;
74485;BMP280;62942;52.462;10.846;2023-04-16T00:15:27;100860;;;
74485;BMP280;62942;52.462;10.846;2023-04-16T00:16:28;100860;;;
74485;BMP280;62942;52.462;10.846;2023-04-16T00:17:37;100860;;;
74485;BMP280;62942;52.462;10.846;2023-04-16T00:18:47;100870;;;
74485;BMP280;62942;52.462;10.846;2023-04-16T00:19:57;100850;;;
74485;BMP280;62942;52.462;10.846;2023-04-16T00:21:07;100860;;;
74485;BMP280;62942;52.462;10.846;2023-04-16T00:22:07;100860;;;
74485;BMP280;62942;52.462;10.846;2023-04-16T00:23:07;100860;;;
74485;BMP280;62942;52.462;10.846;2023-04-16T00:24:17;100860;;;
74485;BMP280;62942;52.462;10.846;2023-04-16T00:25:27;100870;;;
74485;BMP280;62942;52.462;10.846;2023-04-16T00:26:27;100870;;;
74485;BMP280;62942;52.462;10.846;2023-04-16T00:27:37;100870;;;
74485;BMP280;62942;52.462;10.846;2023-04-16T00:28:47;100860;;;
74485;BMP280;62942;52.462;10.846;2023-04-16T00:29:57;100860;;;
74485;BMP280;62942;52.462;10.846;2023-04-16T00:30:57;100870;;;
74485;BMP280;62942;52.462;10.846;2023-04-16T00:32:07;100870;;;
74485;BMP280;62942;52.462;10.846;2023-04-16T00:33:07;100870;;;
74485;BMP280;62942;52.462;10.846;2023-04-16T00:34:07;100860;;;
74485;BMP280;62942;52.462;10.846;2023-04-16T00:35:17;100860;;;
74485;BMP280;62942;52.462;10.846;2023-04-16T00:36:27;100860;;;
74485;BMP280;62942;52.462;10.846;2023-04-16T00:37:27;100870;;;
74485;BMP280;62942;52.462;10.846;2023-04-16T00:38:27;100870;;;
74485;BMP280;62942;52.462;10.846;2023-04-16T00:39:37;100870;;;
74485;BMP280;62942;52.462;10.846;2023-04-16T00:40:37;100870;;;
74485;BMP280;62942;52.462;10.846;2023-04-16T00:41:47;100870;;;
74485;BMP280;62942;52.462;10.846;2023-04-16T00:42:47;100870;;;
74485;BMP280;62942;52.462;10.846;2023-04-16T00:43:47;100870;;;
74485;BMP280;62942;52.462;10.846;2023-04-16T00:44:57;100870;;;
74485;BMP280;62942;52.462;10.846;2023-04-16T00:46:07;100870;;;
74485;BMP280;62942;52.462;10.846;2023-04-16T00:47:17;100870;;;
74485;BMP280;62942;52.462;10.846;2023-04-16T00:48:17;100880;;;
74485;BMP280;62942;52.462;10.846;2023-04-16T00:49:27;100870;;;
74485;BMP280;62942;52.462;10.846;2023-04-16T00:50:37;100880;;;
74485;BMP280;62942;52.462;10.846;2023-04-16T00:51:47;100880;;;
74485;BMP280;62942;52.462;10.846;2023-04-16T00:52:57;100880;;;
74485;BMP280;62942;52.462;10.846;2023-04-16T00:54:07;100880;;;
74485;BMP280;62942;52.462;10.846;2023-04-16T00:55:07;100880;;;
74485;BMP280;62942;52.462;10.846;2023-04-16T00:56:07;100880;;;
74485;BMP280;62942;52.462;10.846;2023-04-16T00:57:07;100880;;;
74485;BMP280;62942;52.462;10.846;2023-04-16T00:58:17;100880;;;
74485;BMP280;62942;52.462;10.846;2023-04-16T00:59:27;100880;;;
74485;BMP280;62942;52.462;10.846;2023-04-16T01:00:37;100880;;;
74485;BMP280;62942;52.462;10.846;2023-04-16T01:01:37;100880;;;
74485;BMP280;62942;52.462;10.846;2023-04-16T01:02:47;100880;;;
74485;BMP280;62942;52.462;10.846;2023-04-16T01:03:57;100880;;;
74485;BMP280;62942;52.462;10.846;2023-04-16T01:05:07;100870;;;
74485;BMP280;62942;52.462;10.846;2023-04-16T01:06:07;100880;;;
74485;BMP280;62942;52.462;10.846;2023-04-16T01:07:17;100890;;;
74485;BMP280;62942;52.462;10.846;2023-04-16T01:08:27;100880;;;
74485;BMP280;62942;52.462;10.846;2023-04-16T01:09:27;100890;;;
74485;BMP280;62942;52.462;10.846;2023-04-16T01:10:37;100890;;;
74485;BMP280;62942;52.462;10.846;2023-04-16T01:11:47;100890;;;
74485;BMP280;62942;52.462;10.846;2023-04-16T01:12:47;100890;;;
74485;BMP280;62942;52.462;10.846;2023-04-16T01:13:57;100890;;;
74485;BMP280;62942;52.462;10.846;2023-04-16T01:14:57;100900;;;
74485;BMP280;62942;52.462;10.846;2023-04-16T01:16:07;100890;;;
74485;BMP280;62942;52.462;10.846;2023-04-16T01:17:07;100890;;;
74485;BMP280;62942;52.462;10.846;2023-04-16T01:18:17;100900;;;
74485;BMP280;62942;52.462;10.846;2023-04-16T01:19:27;100900;;;
74485;BMP280;62942;52.462;10.846;2023-04-16T01:20:37;100900;;;
74485;BMP280;62942;52.462;10.846;2023-04-16T01:21:47;100900;;;
74485;BMP280;62942;52.462;10.846;2023-04-16T01:22:57;100900;;;
74485;BMP280;62942;52.462;10.846;2023-04-16T01:24:07;100900;;;
74485;BMP280;62942;52.462;10.846;2023-04-16T01:25:07;100900;;;
74485;BMP280;62942;52.462;10.846;2023-04-16T01:26:17;100900;;;
74485;BMP280;62942;52.462;10.846;2023-04-16T01:27:27;100900;;;
74485;BMP280;62942;52.462;10.846;2023-04-16T01:28:37;100900;;;
74485;BMP280;62942;52.462;10.846;2023-04-16T01:29:47;100900;;;
74485;BMP280;62942;52.462;10.846;2023-04-16T01:30:47;100910;;;
74485;BMP280;62942;52.462;10.846;2023-04-16T01:31:57;100910;;;
74485;BMP280;62942;52.462;10.846;2023-04-16T01:32:57;100910;;;
74485;BMP280;62942;52.462;10.846;2023-04-16T01:34:07;100910;;;
74485;BMP280;62942;52.462;10.846;2023-04-16T01:35:17;100910;;;
74485;BMP280;62942;52.462;10.846;2023-04-16T01:36:17;100920;;;
74485;BMP280;62942;52.462;10.846;2023-04-16T01:37:17;100910;;;
74485;BMP280;62942;52.462;10.846;2023-04-16T01:38:27;100910;;;
74485;BMP280;62942;52.462;10.846;2023-04-16T01:39:37;100920;;;
74485;BMP280;62942;52.462;10.846;2023-04-16T01:40:37;100920;;;
74485;BMP280;62942;52.462;10.846;2023-04-16T01:41:37;100920;;;
74485;BMP280;62942;52.462;10.846;2023-04-16T01:42:47;100920;;;
74485;BMP280;62942;52.462;10.846;2023-04-16T01:43:57;100910;;;
74485;BMP280;62942;52.462;10.846;2023-04-16T01:45:07;100910;;;
74485;BMP280;62942;52.462;10.846;2023-04-16T01:46:10;100920;;;
74485;BMP280;62942;52.462;10.846;2023-04-16T01:47:07;100920;;;
74485;BMP280;62942;52.462;10.846;2023-04-16T01:48:17;100910;;;
74485;BMP280;62942;52.462;10.846;2023-04-16T01:49:27;100920;;;
74485;BMP280;62942;52.462;10.846;2023-04-16T01:50:37;100920;;;
74485;BMP280;62942;52.462;10.846;2023-04-16T01:51:47;100910;;;
74485;BMP280;62942;52.462;10.846;2023-04-16T01:52:47;100910;;;
74485;BMP280;62942;52.462;10.846;2023-04-16T01:53:57;100920;;;
74485;BMP280;62942;52.462;10.846;2023-04-16T01:54:57;100920;;;
74485;BMP280;62942;52.462;10.846;2023-04-16T01:56:07;100920;;;
74485;BMP280;62942;52.462;10.846;2023-04-16T01:57:17;100910;;;
74485;BMP280;62942;52.462;10.846;2023-04-16T01:58:17;100920;;;
74485;BMP280;62942;52.462;10.846;2023-04-16T01:59:27;100910;;;
74485;BMP280;62942;52.462;10.846;2023-04-16T02:00:27;100920;;;
74485;BMP280;62942;52.462;10.846;2023-04-16T02:01:37;100920;;;
74485;BMP280;62942;52.462;10.846;2023-04-16T02:02:37;100920;;;
74485;BMP280;62942;52.462;10.846;2023-04-16T02:03:47;100920;;;
74485;BMP280;62942;52.462;10.846;2023-04-16T02:04:47;100920;;;
74485;BMP280;62942;52.462;10.846;2023-04-16T02:05:57;100920;;;
74485;BMP280;62942;52.462;10.846;2023-04-16T02:07:07;100920;;;
74485;BMP280;62942;52.462;10.846;2023-04-16T02:08:07;100920;;;
74485;BMP280;62942;52.462;10.846;2023-04-16T02:09:17;100920;;;
74485;BMP280;62942;52.462;10.846;2023-04-16T02:10:27;100920;;;
74485;BMP280;62942;52.462;10.846;2023-04-16T02:11:37;100920;;;
74485;BMP280;62942;52.462;10.846;2023-04-16T02:12:47;100920;;;
74485;BMP280;62942;52.462;10.846;2023-04-16T02:13:47;100910;;;
74485;BMP280;62942;52.462;10.846;2023-04-16T02:14:57;100910;;;
74485;BMP280;62942;52.462;10.846;2023-04-16T02:15:57;100910;;;
74485;BMP280;62942;52.462;10.846;2023-04-16T02:17:07;100920;;;
74485;BMP280;62942;52.462;10.846;2023-04-16T02:18:17;100920;;;
74485;BMP280;62942;52.462;10.846;2023-04-16T02:19:27;100920;;;
74485;BMP280;62942;52.462;10.846;2023-04-16T02:20:38;100910;;;
74485;BMP280;62942;52.462;10.846;2023-04-16T02:21:47;100920;;;
74485;BMP280;62942;52.462;10.846;2023-04-16T02:22:47;100920;;;
74485;BMP280;62942;52.462;10.846;2023-04-16T02:23:47;100920;;;
74485;BMP280;62942;52.462;10.846;2023-04-16T02:24:57;100920;;;
74485;BMP280;62942;52.462;10.846;2023-04-16T02:26:07;100920;;;
74485;BMP280;62942;52.462;10.846;2023-04-16T02:27:07;100910;;;
74485;BMP280;62942;52.462;10.846;2023-04-16T02:28:17;100920;;;
74485;BMP280;62942;52.462;10.846;2023-04-16T02:29:17;100920;;;
74485;BMP280;62942;52.462;10.846;2023-04-16T02:30:27;100920;;;
74485;BMP280;62942;52.462;10.846;2023-04-16T02:31:37;100920;;;
74485;BMP280;62942;52.462;10.846;2023-04-16T02:32:47;100920;;;
74485;BMP280;62942;52.462;10.846;2023-04-16T02:33:57;100920;;;
74485;BMP280;62942;52.462;10.846;2023-04-16T02:34:57;100900;;;
74485;BMP280;62942;52.462;10.846;2023-04-16T02:36:07;100910;;;
74485;BMP280;62942;52.462;10.846;2023-04-16T02:37:07;100910;;;
74485;BMP280;62942;52.462;10.846;2023-04-16T02:38:17;100910;;;
74485;BMP280;62942;52.462;10.846;2023-04-16T02:39:27;100910;;;
74485;BMP280;62942;52.462;10.846;2023-04-16T02:40:37;100920;;;
74485;BMP280;62942;52.462;10.846;2023-04-16T02:41:47;100920;;;
74485;BMP280;62942;52.462;10.846;2023-04-16T02:42:47;100920;;;
74485;BMP280;62942;52.462;10.846;2023-04-16T02:43:57;100920;;;
74485;BMP280;62942;52.462;10.846;2023-04-16T02:45:07;100920;;;
74485;BMP280;62942;52.462;10.846;2023-04-16T02:46:07;100930;;;
74485;BMP280;62942;52.462;10.846;2023-04-16T02:47:07;100920;;;
74485;BMP280;62942;52.462;10.846;2023-04-16T02:48:17;100930;;;
74485;BMP280;62942;52.462;10.846;2023-04-16T02:49:27;100940;;;
74485;BMP280;62942;52.462;10.846;2023-04-16T02:50:37;100940;;;
74485;BMP280;62942;52.462;10.846;2023-04-16T02:51:37;100930;;;
74485;BMP280;62942;52.462;10.846;2023-04-16T02:52:47;100940;;;
74485;BMP280;62942;52.462;10.846;2023-04-16T02:53:47;100940;;;
74485;BMP280;62942;52.462;10.846;2023-04-16T02:54:57;100940;;;
74485;BMP280;62942;52.462;10.846;2023-04-16T02:56:07;100940;;;
74485;BMP280;62942;52.462;10.846;2023-04-16T02:57:07;100940;;;
74485;BMP280;62942;52.462;10.846;2023-04-16T02:58:17;100940;;;
74485;BMP280;62942;52.462;10.846;2023-04-16T02:59:17;100940;;;
74485;BMP280;62942;52.462;10.846;2023-04-16T03:00:17;100930;;;
74485;BMP280;62942;52.462;10.846;2023-04-16T03:01:27;100940;;;
74485;BMP280;62942;52.462;10.846;2023-04-16T03:02:27;100940;;;
74485;BMP280;62942;52.462;10.846;2023-04-16T03:03:37;100940;;;
74485;BMP280;62942;52.462;10.846;2023-04-16T03:04:37;100930;;;
74485;BMP280;62942;52.462;10.846;2023-04-16T03:05:47;100940;;;
74485;BMP280;62942;52.462;10.846;2023-04-16T03:06:57;100930;;;
74485;BMP280;62942;52.462;10.846;2023-04-16T03:08:07;100940;;;
74485;BMP280;62942;52.462;10.846;2023-04-16T03:09:17;100940;;;
74485;BMP280;62942;52.462;10.846;2023-04-16T03:10:17;100940;;;
74485;BMP280;62942;52.462;10.846;2023-04-16T03:11:17;100940;;;
74485;BMP280;62942;52.462;10.846;2023-04-16T03:12:27;100940;;;
74485;BMP280;62942;52.462;10.846;2023-04-16T03:13:27;100940;;;
74485;BMP280;62942;52.462;10.846;2023-04-16T03:14:37;100940;;;
74485;BMP280;62942;52.462;10.846;2023-04-16T03:15:37;100940;;;
74485;BMP280;62942;52.462;10.846;2023-04-16T03:16:47;100940;;;
74485;BMP280;62942;52.462;10.846;2023-04-16T03:17:47;100940;;;
74485;BMP280;62942;52.462;10.846;2023-04-16T03:18:57;100940;;;
74485;BMP280;62942;52.462;10.846;2023-04-16T03:20:07;100940;;;
74485;BMP280;62942;52.462;10.846;2023-04-16T03:21:17;100940;;;
74485;BMP280;62942;52.462;10.846;2023-04-16T03:22:27;100950;;;
74485;BMP280;62942;52.462;10.846;2023-04-16T03:23:37;100940;;;
74485;BMP280;62942;52.462;10.846;2023-04-16T03:24:47;100950;;;
74485;BMP280;62942;52.462;10.846;2023-04-16T03:25:47;100950;;;
74485;BMP280;62942;52.462;10.846;2023-04-16T03:26:57;100940;;;
74485;BMP280;62942;52.462;10.846;2023-04-16T03:27:57;100950;;;
74485;BMP280;62942;52.462;10.846;2023-04-16T03:29:07;100940;;;
74485;BMP280;62942;52.462;10.846;2023-04-16T03:30:07;100960;;;
74485;BMP280;62942;52.462;10.846;2023-04-16T03:31:17;100950;;;
74485;BMP280;62942;52.462;10.846;2023-04-16T03:32:27;100950;;;
74485;BMP280;62942;52.462;10.846;2023-04-16T03:33:37;100950;;;
74485;BMP280;62942;52.462;10.846;2023-04-16T03:34:37;100960;;;
74485;BMP280;62942;52.462;10.846;2023-04-16T03:35:37;100960;;;
74485;BMP280;62942;52.462;10.846;2023-04-16T03:36:47;100960;;;
74485;BMP280;62942;52.462;10.846;2023-04-16T03:37:57;100960;;;
74485;BMP280;62942;52.462;10.846;2023-04-16T03:38:57;100960;;;
74485;BMP280;62942;52.462;10.846;2023-04-16T03:40:07;100960;;;
74485;BMP280;62942;52.462;10.846;2023-04-16T03:41:17;100960;;;
74485;BMP280;62942;52.462;10.846;2023-04-16T03:42:17;100960;;;
74485;BMP280;62942;52.462;10.846;2023-04-16T03:43:27;100960;;;
74485;BMP280;62942;52.462;10.846;2023-04-16T03:44:27;100970;;;
74485;BMP280;62942;52.462;10.846;2023-04-16T03:45:42;100960;;;
74485;BMP280;62942;52.462;10.846;2023-04-16T03:46:47;100960;;;
74485;BMP280;62942;52.462;10.846;2023-04-16T03:47:57;100970;;;
74485;BMP280;62942;52.462;10.846;2023-04-16T03:48:57;100970;;;
74485;BMP280;62942;52.462;10.846;2023-04-16T03:49:57;100970;;;
74485;BMP280;62942;52.462;10.846;2023-04-16T03:51:07;100970;;;
74485;BMP280;62942;52.462;10.846;2023-04-16T03:52:17;100970;;;
74485;BMP280;62942;52.462;10.846;2023-04-16T03:53:27;100970;;;
74485;BMP280;62942;52.462;10.846;2023-04-16T03:54:37;100970;;;
74485;BMP280;62942;52.462;10.846;2023-04-16T03:55:48;100980;;;
74485;BMP280;62942;52.462;10.846;2023-04-16T03:56:57;100970;;;
74485;BMP280;62942;52.462;10.846;2023-04-16T03:57:57;100970;;;
74485;BMP280;62942;52.462;10.846;2023-04-16T03:58:57;100970;;;
74485;BMP280;62942;52.462;10.846;2023-04-16T03:59:57;100980;;;
74485;BMP280;62942;52.462;10.846;2023-04-16T04:01:07;100970;;;
74485;BMP280;62942;52.462;10.846;2023-04-16T04:02:07;100980;;;
74485;BMP280;62942;52.462;10.846;2023-04-16T04:03:17;100970;;;
74485;BMP280;62942;52.462;10.846;2023-04-16T04:04:17;100970;;;
74485;BMP280;62942;52.462;10.846;2023-04-16T04:05:17;100970;;;
74485;BMP280;62942;52.462;10.846;2023-04-16T04:06:27;100970;;;
74485;BMP280;62942;52.462;10.846;2023-04-16T04:07:27;100970;;;
74485;BMP280;62942;52.462;10.846;2023-04-16T04:08:37;100980;;;
74485;BMP280;62942;52.462;10.846;2023-04-16T04:09:47;100980;;;
74485;BMP280;62942;52.462;10.846;2023-04-16T04:10:47;100970;;;
74485;BMP280;62942;52.462;10.846;2023-04-16T04:11:57;100970;;;
74485;BMP280;62942;52.462;10.846;2023-04-16T04:13:07;100960;;;
74485;BMP280;62942;52.462;10.846;2023-04-16T04:14:07;100960;;;
74485;BMP280;62942;52.462;10.846;2023-04-16T04:15:07;100970;;;
74485;BMP280;62942;52.462;10.846;2023-04-16T04:16:07;100980;;;
74485;BMP280;62942;52.462;10.846;2023-04-16T04:17:17;100980;;;
74485;BMP280;62942;52.462;10.846;2023-04-16T04:18:17;100990;;;
74485;BMP280;62942;52.462;10.846;2023-04-16T04:19:17;100980;;;
74485;BMP280;62942;52.462;10.846;2023-04-16T04:20:27;100980;;;
74485;BMP280;62942;52.462;10.846;2023-04-16T04:21:27;100990;;;
74485;BMP280;62942;52.462;10.846;2023-04-16T04:22:27;100990;;;
74485;BMP280;62942;52.462;10.846;2023-04-16T04:23:37;100980;;;
74485;BMP280;62942;52.462;10.846;2023-04-16T04:24:37;101000;;;
74485;BMP280;62942;52.462;10.846;2023-04-16T04:25:47;100990;;;
74485;BMP280;62942;52.462;10.846;2023-04-16T04:26:47;100990;;;
74485;BMP280;62942;52.462;10.846;2023-04-16T04:27:57;101000;;;
74485;BMP280;62942;52.462;10.846;2023-04-16T04:28:57;101000;;;
74485;BMP280;62942;52.462;10.846;2023-04-16T04:30:07;101000;;;
74485;BMP280;62942;52.462;10.846;2023-04-16T04:31:07;101000;;;
74485;BMP280;62942;52.462;10.846;2023-04-16T04:32:17;101000;;;
74485;BMP280;62942;52.462;10.846;2023-04-16T04:33:27;101000;;;
74485;BMP280;62942;52.462;10.846;2023-04-16T04:34:27;100990;;;
74485;BMP280;62942;52.462;10.846;2023-04-16T04:35:37;101000;;;
74485;BMP280;62942;52.462;10.846;2023-04-16T04:36:37;101000;;;
74485;BMP280;62942;52.462;10.846;2023-04-16T04:37:47;101000;;;
74485;BMP280;62942;52.462;10.846;2023-04-16T04:38:47;101010;;;
74485;BMP280;62942;52.462;10.846;2023-04-16T04:39:57;101000;;;
74485;BMP280;62942;52.462;10.846;2023-04-16T04:40:57;101000;;;
74485;BMP280;62942;52.462;10.846;2023-04-16T04:42:07;101000;;;
74485;BMP280;62942;52.462;10.846;2023-04-16T04:43:17;101010;;;
74485;BMP280;62942;52.462;10.846;2023-04-16T04:44:17;101000;;;
74485;BMP280;62942;52.462;10.846;2023-04-16T04:45:17;101000;;;
74485;BMP280;62942;52.462;10.846;2023-04-16T04:46:27;101000;;;
74485;BMP280;62942;52.462;10.846;2023-04-16T04:47:27;101010;;;
74485;BMP280;62942;52.462;10.846;2023-04-16T04:48:37;101000;;;
74485;BMP280;62942;52.462;10.846;2023-04-16T04:49:47;101000;;;
74485;BMP280;62942;52.462;10.846;2023-04-16T04:50:57;101000;;;
74485;BMP280;62942;52.462;10.846;2023-04-16T04:51:57;101010;;;
74485;BMP280;62942;52.462;10.846;2023-04-16T04:52:57;101010;;;
74485;BMP280;62942;52.462;10.846;2023-04-16T04:54:07;101010;;;
74485;BMP280;62942;52.462;10.846;2023-04-16T04:55:17;101010;;;
74485;BMP280;62942;52.462;10.846;2023-04-16T04:56:17;101010;;;
74485;BMP280;62942;52.462;10.846;2023-04-16T04:57:27;101020;;;
74485;BMP280;62942;52.462;10.846;2023-04-16T04:58:37;101010;;;
74485;BMP280;62942;52.462;10.846;2023-04-16T04:59:47;101020;;;
74485;BMP280;62942;52.462;10.846;2023-04-16T05:00:47;101020;;;
74485;BMP280;62942;52.462;10.846;2023-04-16T05:01:57;101020;;;
74485;BMP280;62942;52.462;10.846;2023-04-16T05:03:09;101020;;;
74485;BMP280;62942;52.462;10.846;2023-04-16T05:04:17;101020;;;
74485;BMP280;62942;52.462;10.846;2023-04-16T05:05:26;101020;;;
74485;BMP280;62942;52.462;10.846;2023-04-16T05:06:27;101030;;;
74485;BMP280;62942;52.462;10.846;2023-04-16T05:07:37;101030;;;
74485;BMP280;62942;52.462;10.846;2023-04-16T05:08:37;101020;;;
74485;BMP280;62942;52.462;10.846;2023-04-16T05:09:46;101020;;;
74485;BMP280;62942;52.462;10.846;2023-04-16T05:10:47;101030;;;
74485;BMP280;62942;52.462;10.846;2023-04-16T05:11:47;101020;;;
74485;BMP280;62942;52.462;10.846;2023-04-16T05:12:57;101020;;;
74485;BMP280;62942;52.462;10.846;2023-04-16T05:14:07;101020;;;
74485;BMP280;62942;52.462;10.846;2023-04-16T05:15:07;101030;;;
74485;BMP280;62942;52.462;10.846;2023-04-16T05:16:17;101020;;;
74485;BMP280;62942;52.462;10.846;2023-04-16T05:17:27;101030;;;
74485;BMP280;62942;52.462;10.846;2023-04-16T05:18:27;101030;;;
74485;BMP280;62942;52.462;10.846;2023-04-16T05:19:27;101030;;;
74485;BMP280;62942;52.462;10.846;2023-04-16T05:20:37;101030;;;
74485;BMP280;62942;52.462;10.846;2023-04-16T05:21:46;101030;;;
74485;BMP280;62942;52.462;10.846;2023-04-16T05:22:47;101030;;;
74485;BMP280;62942;52.462;10.846;2023-04-16T05:23:57;101030;;;
74485;BMP280;62942;52.462;10.846;2023-04-16T05:25:07;101030;;;
74485;BMP280;62942;52.462;10.846;2023-04-16T05:26:06;101030;;;
74485;BMP280;62942;52.462;10.846;2023-04-16T05:27:16;101040;;;
74485;BMP280;62942;52.462;10.846;2023-04-16T05:28:17;101030;;;
74485;BMP280;62942;52.462;10.846;2023-04-16T05:29:26;101040;;;
74485;BMP280;62942;52.462;10.846;2023-04-16T05:30:36;101040;;;
74485;BMP280;62942;52.462;10.846;2023-04-16T05:31:37;101030;;;
74485;BMP280;62942;52.462;10.846;2023-04-16T05:32:37;101040;;;
74485;BMP280;62942;52.462;10.846;2023-04-16T05:33:36;101040;;;
74485;BMP280;62942;52.462;10.846;2023-04-16T05:34:46;101050;;;
74485;BMP280;62942;52.462;10.846;2023-04-16T05:35:56;101050;;;
74485;BMP280;62942;52.462;10.846;2023-04-16T05:36:56;101050;;;
74485;BMP280;62942;52.462;10.846;2023-04-16T05:38:06;101050;;;
74485;BMP280;62942;52.462;10.846;2023-04-16T05:39:06;101040;;;
74485;BMP280;62942;52.462;10.846;2023-04-16T05:40:17;101030;;;
74485;BMP280;62942;52.462;10.846;2023-04-16T05:41:26;101040;;;
74485;BMP280;62942;52.462;10.846;2023-04-16T05:42:36;101040;;;
74485;BMP280;62942;52.462;10.846;2023-04-16T05:43:46;101040;;;
74485;BMP280;62942;52.462;10.846;2023-04-16T05:44:46;101040;;;
74485;BMP280;62942;52.462;10.846;2023-04-16T05:45:56;101040;;;
74485;BMP280;62942;52.462;10.846;2023-04-16T05:47:06;101050;;;
74485;BMP280;62942;52.462;10.846;2023-04-16T05:48:07;101050;;;
74485;BMP280;62942;52.462;10.846;2023-04-16T05:49:16;101050;;;
74485;BMP280;62942;52.462;10.846;2023-04-16T05:50:16;101060;;;
74485;BMP280;62942;52.462;10.846;2023-04-16T05:51:26;101060;;;
74485;BMP280;62942;52.462;10.846;2023-04-16T05:52:27;101060;;;
74485;BMP280;62942;52.462;10.846;2023-04-16T05:53:36;101060;;;
74485;BMP280;62942;52.462;10.846;2023-04-16T05:54:36;101060;;;
74485;BMP280;62942;52.462;10.846;2023-04-16T05:55:46;101060;;;
74485;BMP280;62942;52.462;10.846;2023-04-16T05:56:46;101070;;;
74485;BMP280;62942;52.462;10.846;2023-04-16T05:57:46;101070;;;
74485;BMP280;62942;52.462;10.846;2023-04-16T05:58:56;101070;;;
74485;BMP280;62942;52.462;10.846;2023-04-16T05:59:56;101070;;;
74485;BMP280;62942;52.462;10.846;2023-04-16T06:01:06;101070;;;
74485;BMP280;62942;52.462;10.846;2023-04-16T06:02:16;101070;;;
74485;BMP280;62942;52.462;10.846;2023-04-16T06:03:26;101070;;;
74485;BMP280;62942;52.462;10.846;2023-04-16T06:04:36;101070;;;
74485;BMP280;62942;52.462;10.846;2023-04-16T06:05:46;101070;;;
74485;BMP280;62942;52.462;10.846;2023-04-16T06:06:46;101070;;;
74485;BMP280;62942;52.462;10.846;2023-04-16T06:07:56;101080;;;
74485;BMP280;62942;52.462;10.846;2023-04-16T06:08:56;101080;;;
74485;BMP280;62942;52.462;10.846;2023-04-16T06:09:56;101080;;;
74485;BMP280;62942;52.462;10.846;2023-04-16T06:11:06;101080;;;
74485;BMP280;62942;52.462;10.846;2023-04-16T06:12:16;101080;;;
74485;BMP280;62942;52.462;10.846;2023-04-16T06:13:26;101080;;;
74485;BMP280;62942;52.462;10.846;2023-04-16T06:14:26;101080;;;
74485;BMP280;62942;52.462;10.846;2023-04-16T06:15:36;101070;;;
74485;BMP280;62942;52.462;10.846;2023-04-16T06:16:46;101080;;;
74485;BMP280;62942;52.462;10.846;2023-04-16T06:17:48;101080;;;
74485;BMP280;62942;52.462;10.846;2023-04-16T06:18:56;101080;;;
74485;BMP280;62942;52.462;10.846;2023-04-16T06:20:07;101080;;;
74485;BMP280;62942;52.462;10.846;2023-04-16T06:21:06;101070;;;
74485;BMP280;62942;52.462;10.846;2023-04-16T06:22:06;101080;;;
74485;BMP280;62942;52.462;10.846;2023-04-16T06:23:16;101080;;;
74485;BMP280;62942;52.462;10.846;2023-04-16T06:24:26;101080;;;
74485;BMP280;62942;52.462;10.846;2023-04-16T06:25:26;101080;;;
74485;BMP280;62942;52.462;10.846;2023-04-16T06:26:36;101090;;;
74485;BMP280;62942;52.462;10.846;2023-04-16T06:27:46;101090;;;
74485;BMP280;62942;52.462;10.846;2023-04-16T06:28:46;101090;;;
74485;BMP280;62942;52.462;10.846;2023-04-16T06:29:46;101090;;;
74485;BMP280;62942;52.462;10.846;2023-04-16T06:30:56;101100;;;
74485;BMP280;62942;52.462;10.846;2023-04-16T06:32:07;101100;;;
74485;BMP280;62942;52.462;10.846;2023-04-16T06:33:16;101100;;;
74485;BMP280;62942;52.462;10.846;2023-04-16T06:34:26;101100;;;
74485;BMP280;62942;52.462;10.846;2023-04-16T06:35:26;101100;;;
74485;BMP280;62942;52.462;10.846;2023-04-16T06:36:26;101110;;;
74485;BMP280;62942;52.462;10.846;2023-04-16T06:37:26;101110;;;
74485;BMP280;62942;52.462;10.846;2023-04-16T06:38:36;101110;;;
74485;BMP280;62942;52.462;10.846;2023-04-16T06:39:46;101110;;;
74485;BMP280;62942;52.462;10.846;2023-04-16T06:40:56;101110;;;
74485;BMP280;62942;52.462;10.846;2023-04-16T06:41:56;101110;;;
74485;BMP280;62942;52.462;10.846;2023-04-16T06:43:06;101110;;;
74485;BMP280;62942;52.462;10.846;2023-04-16T06:44:06;101120;;;
74485;BMP280;62942;52.462;10.846;2023-04-16T06:45:16;101120;;;
74485;BMP280;62942;52.462;10.846;2023-04-16T06:46:16;101110;;;
74485;BMP280;62942;52.462;10.846;2023-04-16T06:47:26;101120;;;
74485;BMP280;62942;52.462;10.846;2023-04-16T06:48:36;101120;;;
74485;BMP280;62942;52.462;10.846;2023-04-16T06:49:46;101120;;;
74485;BMP280;62942;52.462;10.846;2023-04-16T06:50:46;101100;;;
74485;BMP280;62942;52.462;10.846;2023-04-16T06:51:56;101100;;;
74485;BMP280;62942;52.462;10.846;2023-04-16T06:52:56;101100;;;
74485;BMP280;62942;52.462;10.846;2023-04-16T06:54:06;101110;;;
74485;BMP280;62942;52.462;10.846;2023-04-16T06:55:07;101120;;;
74485;BMP280;62942;52.462;10.846;2023-04-16T06:56:07;101120;;;